sensor_id;sensor_type;location;lat;lon;timestamp;P1;P2;P0
63305;PMS5003;50735;52.060;1.248;2023-04-02T00:01:02;12;10;
63305;PMS5003;50735;52.060;1.248;2023-04-02T00:04:41;18;13;
63305;PMS5003;50735;52.060;1.248;2023-04-02T00:07:28;17;12;
63305;PMS5003;50735;52.060;1.248;2023-04-02T00:10:02;15;15;
63305;PMS5003;50735;52.060;1.248;2023-04-02T00:12:59;15;11;
63305;PMS5003;50735;52.060;1.248;2023-04-02T00:15:33;16;14;
63305;PMS5003;50735;52.060;1.248;2023-04-02T00:18:05;19;15;
63305;PMS5003;50735;52.060;1.248;2023-04-02T00:20:40;13;11;
63305;PMS5003;50735;52.060;1.248;2023-04-02T00:23:16;12;10;
63305;PMS5003;50735;52.060;1.248;2023-04-02T00:25:49;12;10;
63305;PMS5003;50735;52.060;1.248;2023-04-02T00:28:21;11;10;
63305;PMS5003;50735;52.060;1.248;2023-04-02T00:30:55;23;16;
63305;PMS5003;50735;52.060;1.248;2023-04-02T00:33:30;18;15;
63305;PMS5003;50735;52.060;1.248;2023-04-02T00:36:04;16;14;
63305;PMS5003;50735;52.060;1.248;2023-04-02T00:38:37;12;11;
63305;PMS5003;50735;52.060;1.248;2023-04-02T00:41:12;17;10;
63305;PMS5003;50735;52.060;1.248;2023-04-02T00:43:47;20;12;
63305;PMS5003;50735;52.060;1.248;2023-04-02T00:46:20;25;19;
63305;PMS5003;50735;52.060;1.248;2023-04-02T00:48:59;19;15;
63305;PMS5003;50735;52.060;1.248;2023-04-02T00:51:36;16;12;
63305;PMS5003;50735;52.060;1.248;2023-04-02T00:54:11;8;8;
63305;PMS5003;50735;52.060;1.248;2023-04-02T00:56:45;19;18;
63305;PMS5003;50735;52.060;1.248;2023-04-02T00:59:20;14;10;
63305;PMS5003;50735;52.060;1.248;2023-04-02T01:01:58;12;11;
63305;PMS5003;50735;52.060;1.248;2023-04-02T01:04:34;21;12;
63305;PMS5003;50735;52.060;1.248;2023-04-02T01:07:07;15;14;
63305;PMS5003;50735;52.060;1.248;2023-04-02T01:09:45;12;10;
63305;PMS5003;50735;52.060;1.248;2023-04-02T01:12:33;16;12;
63305;PMS5003;50735;52.060;1.248;2023-04-02T01:15:16;17;9;
63305;PMS5003;50735;52.060;1.248;2023-04-02T01:17:54;18;14;
63305;PMS5003;50735;52.060;1.248;2023-04-02T01:20:52;15;12;
63305;PMS5003;50735;52.060;1.248;2023-04-02T01:23:38;20;17;
63305;PMS5003;50735;52.060;1.248;2023-04-02T01:26:22;16;14;
63305;PMS5003;50735;52.060;1.248;2023-04-02T01:29:05;15;12;
63305;PMS5003;50735;52.060;1.248;2023-04-02T01:31:43;16;10;
63305;PMS5003;50735;52.060;1.248;2023-04-02T01:34:17;23;15;
63305;PMS5003;50735;52.060;1.248;2023-04-02T01:37:00;18;16;
63305;PMS5003;50735;52.060;1.248;2023-04-02T01:39:43;11;11;
63305;PMS5003;50735;52.060;1.248;2023-04-02T01:42:23;21;17;
63305;PMS5003;50735;52.060;1.248;2023-04-02T01:45:03;17;12;
63305;PMS5003;50735;52.060;1.248;2023-04-02T01:47:38;18;14;
63305;PMS5003;50735;52.060;1.248;2023-04-02T01:50:15;15;12;
63305;PMS5003;50735;52.060;1.248;2023-04-02T01:52:54;14;10;
63305;PMS5003;50735;52.060;1.248;2023-04-02T01:55:31;20;15;
63305;PMS5003;50735;52.060;1.248;2023-04-02T01:58:05;15;11;
63305;PMS5003;50735;52.060;1.248;2023-04-02T02:00:40;16;15;
63305;PMS5003;50735;52.060;1.248;2023-04-02T02:03:16;16;12;
63305;PMS5003;50735;52.060;1.248;2023-04-02T02:05:50;14;14;
63305;PMS5003;50735;52.060;1.248;2023-04-02T02:08:29;15;14;
63305;PMS5003;50735;52.060;1.248;2023-04-02T02:11:02;16;15;
63305;PMS5003;50735;52.060;1.248;2023-04-02T02:13:35;21;14;
63305;PMS5003;50735;52.060;1.248;2023-04-02T02:16:08;19;16;
63305;PMS5003;50735;52.060;1.248;2023-04-02T02:18:45;14;12;
63305;PMS5003;50735;52.060;1.248;2023-04-02T02:21:23;18;17;
63305;PMS5003;50735;52.060;1.248;2023-04-02T02:24:03;16;14;
63305;PMS5003;50735;52.060;1.248;2023-04-02T02:26:37;14;12;
63305;PMS5003;50735;52.060;1.248;2023-04-02T02:29:11;16;14;
63305;PMS5003;50735;52.060;1.248;2023-04-02T02:31:50;12;11;
63305;PMS5003;50735;52.060;1.248;2023-04-02T02:34:29;14;11;
63305;PMS5003;50735;52.060;1.248;2023-04-02T02:37:09;11;8;
63305;PMS5003;50735;52.060;1.248;2023-04-02T02:39:45;17;10;
63305;PMS5003;50735;52.060;1.248;2023-04-02T02:42:22;11;10;
63305;PMS5003;50735;52.060;1.248;2023-04-02T02:44:58;20;10;
63305;PMS5003;50735;52.060;1.248;2023-04-02T02:47:35;16;14;
63305;PMS5003;50735;52.060;1.248;2023-04-02T02:50:11;10;10;
63305;PMS5003;50735;52.060;1.248;2023-04-02T02:52:50;10;9;
63305;PMS5003;50735;52.060;1.248;2023-04-02T02:55:25;8;8;
63305;PMS5003;50735;52.060;1.248;2023-04-02T02:58:00;16;11;
63305;PMS5003;50735;52.060;1.248;2023-04-02T03:00:36;14;11;
63305;PMS5003;50735;52.060;1.248;2023-04-02T03:03:09;17;17;
63305;PMS5003;50735;52.060;1.248;2023-04-02T03:05:44;10;8;
63305;PMS5003;50735;52.060;1.248;2023-04-02T03:08:24;17;12;
63305;PMS5003;50735;52.060;1.248;2023-04-02T03:11:01;10;9;
63305;PMS5003;50735;52.060;1.248;2023-04-02T03:13:38;8;8;
63305;PMS5003;50735;52.060;1.248;2023-04-02T03:16:14;10;7;
63305;PMS5003;50735;52.060;1.248;2023-04-02T03:18:51;14;9;
63305;PMS5003;50735;52.060;1.248;2023-04-02T03:21:27;11;9;
63305;PMS5003;50735;52.060;1.248;2023-04-02T03:24:04;16;8;
63305;PMS5003;50735;52.060;1.248;2023-04-02T03:26:43;9;8;
63305;PMS5003;50735;52.060;1.248;2023-04-02T03:29:21;7;7;
63305;PMS5003;50735;52.060;1.248;2023-04-02T03:31:58;10;7;
63305;PMS5003;50735;52.060;1.248;2023-04-02T03:34:36;10;9;
63305;PMS5003;50735;52.060;1.248;2023-04-02T03:37:14;12;9;
63305;PMS5003;50735;52.060;1.248;2023-04-02T03:39:52;8;8;
63305;PMS5003;50735;52.060;1.248;2023-04-02T03:42:29;12;9;
63305;PMS5003;50735;52.060;1.248;2023-04-02T03:45:10;11;9;
63305;PMS5003;50735;52.060;1.248;2023-04-02T03:47:50;7;7;
63305;PMS5003;50735;52.060;1.248;2023-04-02T03:50:27;9;8;
63305;PMS5003;50735;52.060;1.248;2023-04-02T03:53:06;7;6;
63305;PMS5003;50735;52.060;1.248;2023-04-02T03:55:39;16;7;
63305;PMS5003;50735;52.060;1.248;2023-04-02T03:58:14;8;7;
63305;PMS5003;50735;52.060;1.248;2023-04-02T04:00:52;7;6;
63305;PMS5003;50735;52.060;1.248;2023-04-02T04:03:30;9;7;
63305;PMS5003;50735;52.060;1.248;2023-04-02T04:06:09;10;8;
63305;PMS5003;50735;52.060;1.248;2023-04-02T04:08:48;9;9;
63305;PMS5003;50735;52.060;1.248;2023-04-02T04:11:25;7;7;
63305;PMS5003;50735;52.060;1.248;2023-04-02T04:14:04;7;7;
63305;PMS5003;50735;52.060;1.248;2023-04-02T04:16:40;9;7;
63305;PMS5003;50735;52.060;1.248;2023-04-02T04:19:18;10;7;
63305;PMS5003;50735;52.060;1.248;2023-04-02T04:22:06;7;7;
63305;PMS5003;50735;52.060;1.248;2023-04-02T04:24:40;10;8;
63305;PMS5003;50735;52.060;1.248;2023-04-02T04:27:14;10;9;
63305;PMS5003;50735;52.060;1.248;2023-04-02T04:29:54;8;8;
63305;PMS5003;50735;52.060;1.248;2023-04-02T04:32:33;7;7;
63305;PMS5003;50735;52.060;1.248;2023-04-02T04:35:14;9;6;
63305;PMS5003;50735;52.060;1.248;2023-04-02T04:37:53;5;5;
63305;PMS5003;50735;52.060;1.248;2023-04-02T04:40:29;11;10;
63305;PMS5003;50735;52.060;1.248;2023-04-02T04:43:05;13;9;
63305;PMS5003;50735;52.060;1.248;2023-04-02T04:45:41;13;7;
63305;PMS5003;50735;52.060;1.248;2023-04-02T04:48:17;6;6;
63305;PMS5003;50735;52.060;1.248;2023-04-02T04:50:52;13;8;
63305;PMS5003;50735;52.060;1.248;2023-04-02T04:53:27;8;7;
63305;PMS5003;50735;52.060;1.248;2023-04-02T04:56:02;7;7;
63305;PMS5003;50735;52.060;1.248;2023-04-02T04:58:35;10;10;
63305;PMS5003;50735;52.060;1.248;2023-04-02T05:01:17;8;8;
63305;PMS5003;50735;52.060;1.248;2023-04-02T05:03:53;6;6;
63305;PMS5003;50735;52.060;1.248;2023-04-02T05:06:33;6;6;
63305;PMS5003;50735;52.060;1.248;2023-04-02T05:09:11;9;7;
63305;PMS5003;50735;52.060;1.248;2023-04-02T05:11:50;9;6;
63305;PMS5003;50735;52.060;1.248;2023-04-02T05:14:30;7;6;
63305;PMS5003;50735;52.060;1.248;2023-04-02T05:17:08;4;4;
63305;PMS5003;50735;52.060;1.248;2023-04-02T05:19:48;7;7;
63305;PMS5003;50735;52.060;1.248;2023-04-02T05:22:25;13;8;
63305;PMS5003;50735;52.060;1.248;2023-04-02T05:25:09;5;5;
63305;PMS5003;50735;52.060;1.248;2023-04-02T05:27:50;11;9;
63305;PMS5003;50735;52.060;1.248;2023-04-02T05:30:36;10;9;
63305;PMS5003;50735;52.060;1.248;2023-04-02T05:33:17;13;6;
63305;PMS5003;50735;52.060;1.248;2023-04-02T05:35:55;6;6;
63305;PMS5003;50735;52.060;1.248;2023-04-02T05:38:31;7;6;
63305;PMS5003;50735;52.060;1.248;2023-04-02T05:41:06;9;7;
63305;PMS5003;50735;52.060;1.248;2023-04-02T05:43:48;6;6;
63305;PMS5003;50735;52.060;1.248;2023-04-02T05:46:25;8;8;
63305;PMS5003;50735;52.060;1.248;2023-04-02T05:49:01;6;6;
63305;PMS5003;50735;52.060;1.248;2023-04-02T05:51:40;13;6;
63305;PMS5003;50735;52.060;1.248;2023-04-02T05:54:18;6;5;
63305;PMS5003;50735;52.060;1.248;2023-04-02T05:56:56;13;6;
63305;PMS5003;50735;52.060;1.248;2023-04-02T05:59:34;10;6;
63305;PMS5003;50735;52.060;1.248;2023-04-02T06:02:13;8;6;
63305;PMS5003;50735;52.060;1.248;2023-04-02T06:04:52;7;4;
63305;PMS5003;50735;52.060;1.248;2023-04-02T06:07:30;12;9;
63305;PMS5003;50735;52.060;1.248;2023-04-02T06:10:05;5;5;
63305;PMS5003;50735;52.060;1.248;2023-04-02T06:12:42;8;6;
63305;PMS5003;50735;52.060;1.248;2023-04-02T06:15:19;7;4;
63305;PMS5003;50735;52.060;1.248;2023-04-02T06:17:57;8;5;
63305;PMS5003;50735;52.060;1.248;2023-04-02T06:20:30;6;6;
63305;PMS5003;50735;52.060;1.248;2023-04-02T06:23:03;6;5;
63305;PMS5003;50735;52.060;1.248;2023-04-02T06:25:42;5;5;
63305;PMS5003;50735;52.060;1.248;2023-04-02T06:28:20;8;5;
63305;PMS5003;50735;52.060;1.248;2023-04-02T06:30:58;9;5;
63305;PMS5003;50735;52.060;1.248;2023-04-02T06:33:35;8;4;
63305;PMS5003;50735;52.060;1.248;2023-04-02T06:36:07;6;3;
63305;PMS5003;50735;52.060;1.248;2023-04-02T06:38:40;11;5;
63305;PMS5003;50735;52.060;1.248;2023-04-02T06:41:16;6;3;
63305;PMS5003;50735;52.060;1.248;2023-04-02T06:43:52;7;6;
63305;PMS5003;50735;52.060;1.248;2023-04-02T06:46:27;5;3;
63305;PMS5003;50735;52.060;1.248;2023-04-02T06:49:08;9;5;
63305;PMS5003;50735;52.060;1.248;2023-04-02T06:51:49;10;4;
63305;PMS5003;50735;52.060;1.248;2023-04-02T06:54:25;8;5;
63305;PMS5003;50735;52.060;1.248;2023-04-02T06:56:56;8;5;
63305;PMS5003;50735;52.060;1.248;2023-04-02T06:59:28;6;3;
63305;PMS5003;50735;52.060;1.248;2023-04-02T07:02:01;4;4;
63305;PMS5003;50735;52.060;1.248;2023-04-02T07:04:43;5;4;
63305;PMS5003;50735;52.060;1.248;2023-04-02T07:07:15;8;5;
63305;PMS5003;50735;52.060;1.248;2023-04-02T07:09:47;4;4;
63305;PMS5003;50735;52.060;1.248;2023-04-02T07:12:19;6;6;
63305;PMS5003;50735;52.060;1.248;2023-04-02T07:14:54;6;5;
63305;PMS5003;50735;52.060;1.248;2023-04-02T07:17:26;8;6;
63305;PMS5003;50735;52.060;1.248;2023-04-02T07:19:57;5;3;
63305;PMS5003;50735;52.060;1.248;2023-04-02T07:22:29;8;6;
63305;PMS5003;50735;52.060;1.248;2023-04-02T07:25:01;6;5;
63305;PMS5003;50735;52.060;1.248;2023-04-02T07:27:33;9;5;
63305;PMS5003;50735;52.060;1.248;2023-04-02T07:30:05;5;3;
63305;PMS5003;50735;52.060;1.248;2023-04-02T07:32:38;9;3;
63305;PMS5003;50735;52.060;1.248;2023-04-02T07:35:10;4;4;
63305;PMS5003;50735;52.060;1.248;2023-04-02T07:37:42;4;4;
63305;PMS5003;50735;52.060;1.248;2023-04-02T07:40:15;6;4;
63305;PMS5003;50735;52.060;1.248;2023-04-02T07:42:48;5;3;
63305;PMS5003;50735;52.060;1.248;2023-04-02T07:45:20;4;4;
63305;PMS5003;50735;52.060;1.248;2023-04-02T07:47:51;9;7;
63305;PMS5003;50735;52.060;1.248;2023-04-02T07:50:23;6;4;
63305;PMS5003;50735;52.060;1.248;2023-04-02T07:52:55;4;3;
63305;PMS5003;50735;52.060;1.248;2023-04-02T07:55:27;7;5;
63305;PMS5003;50735;52.060;1.248;2023-04-02T07:57:58;12;4;
63305;PMS5003;50735;52.060;1.248;2023-04-02T08:00:30;8;3;
63305;PMS5003;50735;52.060;1.248;2023-04-02T08:03:02;11;6;
63305;PMS5003;50735;52.060;1.248;2023-04-02T08:05:35;2;2;
63305;PMS5003;50735;52.060;1.248;2023-04-02T08:08:07;3;2;
63305;PMS5003;50735;52.060;1.248;2023-04-02T08:10:39;5;5;
63305;PMS5003;50735;52.060;1.248;2023-04-02T08:13:11;3;3;
63305;PMS5003;50735;52.060;1.248;2023-04-02T08:15:43;7;4;
63305;PMS5003;50735;52.060;1.248;2023-04-02T08:18:15;5;4;
63305;PMS5003;50735;52.060;1.248;2023-04-02T08:20:47;5;2;
63305;PMS5003;50735;52.060;1.248;2023-04-02T08:23:19;6;3;
63305;PMS5003;50735;52.060;1.248;2023-04-02T08:25:51;6;5;
63305;PMS5003;50735;52.060;1.248;2023-04-02T08:28:23;4;2;
63305;PMS5003;50735;52.060;1.248;2023-04-02T08:30:55;6;3;
63305;PMS5003;50735;52.060;1.248;2023-04-02T08:33:27;5;5;
63305;PMS5003;50735;52.060;1.248;2023-04-02T08:35:59;5;4;
63305;PMS5003;50735;52.060;1.248;2023-04-02T08:38:30;6;4;
63305;PMS5003;50735;52.060;1.248;2023-04-02T08:41:02;8;3;
63305;PMS5003;50735;52.060;1.248;2023-04-02T08:43:39;3;3;
63305;PMS5003;50735;52.060;1.248;2023-04-02T08:46:24;7;4;
63305;PMS5003;50735;52.060;1.248;2023-04-02T08:49:01;4;4;
63305;PMS5003;50735;52.060;1.248;2023-04-02T08:51:43;8;8;
63305;PMS5003;50735;52.060;1.248;2023-04-02T08:54:20;3;3;
63305;PMS5003;50735;52.060;1.248;2023-04-02T08:56:55;8;5;
63305;PMS5003;50735;52.060;1.248;2023-04-02T08:59:32;6;3;
63305;PMS5003;50735;52.060;1.248;2023-04-02T09:02:14;3;3;
63305;PMS5003;50735;52.060;1.248;2023-04-02T09:04:58;4;3;
63305;PMS5003;50735;52.060;1.248;2023-04-02T09:07:32;6;5;
63305;PMS5003;50735;52.060;1.248;2023-04-02T09:10:05;7;4;
63305;PMS5003;50735;52.060;1.248;2023-04-02T09:12:43;6;3;
63305;PMS5003;50735;52.060;1.248;2023-04-02T09:15:21;5;3;
63305;PMS5003;50735;52.060;1.248;2023-04-02T09:18:05;2;2;
63305;PMS5003;50735;52.060;1.248;2023-04-02T09:20:43;9;6;
63305;PMS5003;50735;52.060;1.248;2023-04-02T09:23:17;4;4;
63305;PMS5003;50735;52.060;1.248;2023-04-02T09:25:52;5;4;
63305;PMS5003;50735;52.060;1.248;2023-04-02T09:28:25;5;3;
63305;PMS5003;50735;52.060;1.248;2023-04-02T09:30:59;4;2;
63305;PMS5003;50735;52.060;1.248;2023-04-02T09:33:44;7;4;
63305;PMS5003;50735;52.060;1.248;2023-04-02T09:36:19;5;5;
63305;PMS5003;50735;52.060;1.248;2023-04-02T09:39:01;8;3;
63305;PMS5003;50735;52.060;1.248;2023-04-02T09:41:35;7;5;
63305;PMS5003;50735;52.060;1.248;2023-04-02T09:44:11;7;3;
63305;PMS5003;50735;52.060;1.248;2023-04-02T09:46:51;5;3;
63305;PMS5003;50735;52.060;1.248;2023-04-02T09:49:26;7;3;
63305;PMS5003;50735;52.060;1.248;2023-04-02T09:52:14;7;3;
63305;PMS5003;50735;52.060;1.248;2023-04-02T09:55:04;3;3;
63305;PMS5003;50735;52.060;1.248;2023-04-02T09:57:49;4;4;
63305;PMS5003;50735;52.060;1.248;2023-04-02T10:00:22;3;3;
63305;PMS5003;50735;52.060;1.248;2023-04-02T10:03:00;3;3;
63305;PMS5003;50735;52.060;1.248;2023-04-02T10:05:35;4;4;
63305;PMS5003;50735;52.060;1.248;2023-04-02T10:08:12;7;4;
63305;PMS5003;50735;52.060;1.248;2023-04-02T10:10:49;6;3;
63305;PMS5003;50735;52.060;1.248;2023-04-02T10:13:24;4;3;
63305;PMS5003;50735;52.060;1.248;2023-04-02T10:15:59;5;4;
63305;PMS5003;50735;52.060;1.248;2023-04-02T10:18:37;6;3;
63305;PMS5003;50735;52.060;1.248;2023-04-02T10:21:16;7;3;
63305;PMS5003;50735;52.060;1.248;2023-04-02T10:23:50;4;2;
63305;PMS5003;50735;52.060;1.248;2023-04-02T10:26:26;2;2;
63305;PMS5003;50735;52.060;1.248;2023-04-02T10:30:15;6;4;
63305;PMS5003;50735;52.060;1.248;2023-04-02T10:32:54;2;2;
63305;PMS5003;50735;52.060;1.248;2023-04-02T10:35:34;3;3;
63305;PMS5003;50735;52.060;1.248;2023-04-02T10:38:14;6;4;
63305;PMS5003;50735;52.060;1.248;2023-04-02T10:40:57;7;4;
63305;PMS5003;50735;52.060;1.248;2023-04-02T10:43:42;6;5;
63305;PMS5003;50735;52.060;1.248;2023-04-02T10:46:24;4;2;
63305;PMS5003;50735;52.060;1.248;2023-04-02T10:49:02;6;4;
63305;PMS5003;50735;52.060;1.248;2023-04-02T10:51:43;6;3;
63305;PMS5003;50735;52.060;1.248;2023-04-02T10:54:23;3;1;
63305;PMS5003;50735;52.060;1.248;2023-04-02T10:57:07;4;4;
63305;PMS5003;50735;52.060;1.248;2023-04-02T10:59:45;2;2;
63305;PMS5003;50735;52.060;1.248;2023-04-02T11:02:24;9;4;
63305;PMS5003;50735;52.060;1.248;2023-04-02T11:05:04;6;3;
63305;PMS5003;50735;52.060;1.248;2023-04-02T11:07:46;9;8;
63305;PMS5003;50735;52.060;1.248;2023-04-02T11:10:23;8;2;
63305;PMS5003;50735;52.060;1.248;2023-04-02T11:13:02;7;3;
63305;PMS5003;50735;52.060;1.248;2023-04-02T11:15:41;4;2;
63305;PMS5003;50735;52.060;1.248;2023-04-02T11:18:21;7;3;
63305;PMS5003;50735;52.060;1.248;2023-04-02T11:20:57;5;2;
63305;PMS5003;50735;52.060;1.248;2023-04-02T11:23:32;4;2;
63305;PMS5003;50735;52.060;1.248;2023-04-02T11:26:42;4;4;
63305;PMS5003;50735;52.060;1.248;2023-04-02T11:29:17;7;4;
63305;PMS5003;50735;52.060;1.248;2023-04-02T11:32:26;8;3;
63305;PMS5003;50735;52.060;1.248;2023-04-02T11:35:20;4;4;
63305;PMS5003;50735;52.060;1.248;2023-04-02T11:37:56;6;3;
63305;PMS5003;50735;52.060;1.248;2023-04-02T11:41:01;6;3;
63305;PMS5003;50735;52.060;1.248;2023-04-02T11:43:49;7;3;
63305;PMS5003;50735;52.060;1.248;2023-04-02T11:46:31;4;4;
63305;PMS5003;50735;52.060;1.248;2023-04-02T11:50:27;5;4;
63305;PMS5003;50735;52.060;1.248;2023-04-02T11:53:01;6;5;
63305;PMS5003;50735;52.060;1.248;2023-04-02T11:55:35;4;3;
63305;PMS5003;50735;52.060;1.248;2023-04-02T11:58:11;5;4;
63305;PMS5003;50735;52.060;1.248;2023-04-02T12:01:14;16;12;
63305;PMS5003;50735;52.060;1.248;2023-04-02T12:04:01;3;3;
63305;PMS5003;50735;52.060;1.248;2023-04-02T12:06:48;4;3;
63305;PMS5003;50735;52.060;1.248;2023-04-02T12:09:27;8;4;
63305;PMS5003;50735;52.060;1.248;2023-04-02T12:12:14;6;5;
63305;PMS5003;50735;52.060;1.248;2023-04-02T12:14:48;8;6;
63305;PMS5003;50735;52.060;1.248;2023-04-02T12:17:24;8;7;
63305;PMS5003;50735;52.060;1.248;2023-04-02T12:20:00;3;3;
63305;PMS5003;50735;52.060;1.248;2023-04-02T12:22:45;4;3;
63305;PMS5003;50735;52.060;1.248;2023-04-02T12:25:22;4;1;
63305;PMS5003;50735;52.060;1.248;2023-04-02T12:28:05;5;3;
63305;PMS5003;50735;52.060;1.248;2023-04-02T12:30:45;3;1;
63305;PMS5003;50735;52.060;1.248;2023-04-02T12:33:28;3;3;
63305;PMS5003;50735;52.060;1.248;2023-04-02T12:36:03;5;4;
63305;PMS5003;50735;52.060;1.248;2023-04-02T12:38:42;2;2;
63305;PMS5003;50735;52.060;1.248;2023-04-02T12:41:18;2;2;
63305;PMS5003;50735;52.060;1.248;2023-04-02T12:43:56;7;4;
63305;PMS5003;50735;52.060;1.248;2023-04-02T12:46:29;5;5;
63305;PMS5003;50735;52.060;1.248;2023-04-02T12:49:04;6;3;
63305;PMS5003;50735;52.060;1.248;2023-04-02T12:51:37;4;2;
63305;PMS5003;50735;52.060;1.248;2023-04-02T12:54:11;3;3;
63305;PMS5003;50735;52.060;1.248;2023-04-02T12:56:45;8;6;
63305;PMS5003;50735;52.060;1.248;2023-04-02T12:59:25;2;2;
63305;PMS5003;50735;52.060;1.248;2023-04-02T13:02:00;4;3;
63305;PMS5003;50735;52.060;1.248;2023-04-02T13:04:44;3;1;
63305;PMS5003;50735;52.060;1.248;2023-04-02T13:07:18;6;4;
63305;PMS5003;50735;52.060;1.248;2023-04-02T13:09:53;3;3;
63305;PMS5003;50735;52.060;1.248;2023-04-02T13:12:30;5;3;
63305;PMS5003;50735;52.060;1.248;2023-04-02T13:15:04;3;3;
63305;PMS5003;50735;52.060;1.248;2023-04-02T13:17:40;8;4;
63305;PMS5003;50735;52.060;1.248;2023-04-02T13:20:30;1;1;
63305;PMS5003;50735;52.060;1.248;2023-04-02T13:23:22;4;3;
63305;PMS5003;50735;52.060;1.248;2023-04-02T13:26:04;6;4;
63305;PMS5003;50735;52.060;1.248;2023-04-02T13:28:54;3;3;
63305;PMS5003;50735;52.060;1.248;2023-04-02T13:31:26;3;3;
63305;PMS5003;50735;52.060;1.248;2023-04-02T13:33:58;4;3;
63305;PMS5003;50735;52.060;1.248;2023-04-02T13:36:30;5;3;
63305;PMS5003;50735;52.060;1.248;2023-04-02T13:39:01;9;3;
63305;PMS5003;50735;52.060;1.248;2023-04-02T13:41:34;2;2;
63305;PMS5003;50735;52.060;1.248;2023-04-02T13:44:17;3;3;
63305;PMS5003;50735;52.060;1.248;2023-04-02T13:46:51;4;4;
63305;PMS5003;50735;52.060;1.248;2023-04-02T13:49:23;2;2;
63305;PMS5003;50735;52.060;1.248;2023-04-02T13:51:56;3;3;
63305;PMS5003;50735;52.060;1.248;2023-04-02T13:54:31;4;4;
63305;PMS5003;50735;52.060;1.248;2023-04-02T13:57:10;3;2;
63305;PMS5003;50735;52.060;1.248;2023-04-02T13:59:42;5;4;
63305;PMS5003;50735;52.060;1.248;2023-04-02T14:02:15;5;3;
63305;PMS5003;50735;52.060;1.248;2023-04-02T14:04:50;3;3;
63305;PMS5003;50735;52.060;1.248;2023-04-02T14:07:31;4;4;
63305;PMS5003;50735;52.060;1.248;2023-04-02T14:10:14;3;3;
63305;PMS5003;50735;52.060;1.248;2023-04-02T14:12:58;5;3;
63305;PMS5003;50735;52.060;1.248;2023-04-02T14:15:42;3;3;
63305;PMS5003;50735;52.060;1.248;2023-04-02T14:18:25;3;2;
63305;PMS5003;50735;52.060;1.248;2023-04-02T14:21:11;1;1;
63305;PMS5003;50735;52.060;1.248;2023-04-02T14:23:51;5;5;
63305;PMS5003;50735;52.060;1.248;2023-04-02T14:26:32;7;3;
63305;PMS5003;50735;52.060;1.248;2023-04-02T14:29:12;4;3;
63305;PMS5003;50735;52.060;1.248;2023-04-02T14:31:52;4;2;
63305;PMS5003;50735;52.060;1.248;2023-04-02T14:34:31;3;2;
63305;PMS5003;50735;52.060;1.248;2023-04-02T14:37:13;4;2;
63305;PMS5003;50735;52.060;1.248;2023-04-02T14:39:54;1;1;
63305;PMS5003;50735;52.060;1.248;2023-04-02T14:42:34;2;2;
63305;PMS5003;50735;52.060;1.248;2023-04-02T14:45:15;4;2;
63305;PMS5003;50735;52.060;1.248;2023-04-02T14:47:57;4;3;
63305;PMS5003;50735;52.060;1.248;2023-04-02T14:50:35;5;1;
63305;PMS5003;50735;52.060;1.248;2023-04-02T14:53:11;6;3;
63305;PMS5003;50735;52.060;1.248;2023-04-02T14:55:50;4;4;
63305;PMS5003;50735;52.060;1.248;2023-04-02T14:58:25;6;2;
63305;PMS5003;50735;52.060;1.248;2023-04-02T15:01:05;2;2;
63305;PMS5003;50735;52.060;1.248;2023-04-02T15:03:42;1;1;
63305;PMS5003;50735;52.060;1.248;2023-04-02T15:06:20;3;3;
63305;PMS5003;50735;52.060;1.248;2023-04-02T15:08:57;7;2;
63305;PMS5003;50735;52.060;1.248;2023-04-02T15:11:34;3;3;
63305;PMS5003;50735;52.060;1.248;2023-04-02T15:14:10;2;2;
63305;PMS5003;50735;52.060;1.248;2023-04-02T15:16:47;4;3;
63305;PMS5003;50735;52.060;1.248;2023-04-02T15:19:18;4;2;
63305;PMS5003;50735;52.060;1.248;2023-04-02T15:21:55;2;1;
63305;PMS5003;50735;52.060;1.248;2023-04-02T15:24:40;4;2;
63305;PMS5003;50735;52.060;1.248;2023-04-02T15:27:24;3;2;
63305;PMS5003;50735;52.060;1.248;2023-04-02T15:30:06;2;1;
63305;PMS5003;50735;52.060;1.248;2023-04-02T15:32:43;1;1;
63305;PMS5003;50735;52.060;1.248;2023-04-02T15:35:17;1;1;
63305;PMS5003;50735;52.060;1.248;2023-04-02T15:38:00;2;2;
63305;PMS5003;50735;52.060;1.248;2023-04-02T15:40:43;2;1;
63305;PMS5003;50735;52.060;1.248;2023-04-02T15:43:23;4;2;
63305;PMS5003;50735;52.060;1.248;2023-04-02T15:46:04;2;1;
63305;PMS5003;50735;52.060;1.248;2023-04-02T15:49:16;3;2;
63305;PMS5003;50735;52.060;1.248;2023-04-02T15:52:02;2;1;
63305;PMS5003;50735;52.060;1.248;2023-04-02T15:54:44;3;2;
63305;PMS5003;50735;52.060;1.248;2023-04-02T15:57:28;2;2;
63305;PMS5003;50735;52.060;1.248;2023-04-02T16:00:16;3;1;
63305;PMS5003;50735;52.060;1.248;2023-04-02T16:02:58;4;2;
63305;PMS5003;50735;52.060;1.248;2023-04-02T16:05:42;1;1;
63305;PMS5003;50735;52.060;1.248;2023-04-02T16:08:26;3;3;
63305;PMS5003;50735;52.060;1.248;2023-04-02T16:11:09;4;1;
63305;PMS5003;50735;52.060;1.248;2023-04-02T16:13:41;6;3;
63305;PMS5003;50735;52.060;1.248;2023-04-02T16:16:14;4;2;
63305;PMS5003;50735;52.060;1.248;2023-04-02T16:18:52;6;3;
63305;PMS5003;50735;52.060;1.248;2023-04-02T16:21:30;4;2;
63305;PMS5003;50735;52.060;1.248;2023-04-02T16:24:05;2;2;
63305;PMS5003;50735;52.060;1.248;2023-04-02T16:26:43;2;2;
63305;PMS5003;50735;52.060;1.248;2023-04-02T16:29:27;1;1;
63305;PMS5003;50735;52.060;1.248;2023-04-02T16:32:11;8;7;
63305;PMS5003;50735;52.060;1.248;2023-04-02T16:34:52;3;3;
63305;PMS5003;50735;52.060;1.248;2023-04-02T16:37:30;3;2;
63305;PMS5003;50735;52.060;1.248;2023-04-02T16:40:15;3;3;
63305;PMS5003;50735;52.060;1.248;2023-04-02T16:42:56;1;1;
63305;PMS5003;50735;52.060;1.248;2023-04-02T16:45:37;4;2;
63305;PMS5003;50735;52.060;1.248;2023-04-02T16:48:17;3;3;
63305;PMS5003;50735;52.060;1.248;2023-04-02T16:51:01;5;3;
63305;PMS5003;50735;52.060;1.248;2023-04-02T16:53:46;4;3;
63305;PMS5003;50735;52.060;1.248;2023-04-02T16:56:32;3;3;
63305;PMS5003;50735;52.060;1.248;2023-04-02T16:59:14;4;3;
63305;PMS5003;50735;52.060;1.248;2023-04-02T17:01:53;1;1;
63305;PMS5003;50735;52.060;1.248;2023-04-02T17:04:39;5;3;
63305;PMS5003;50735;52.060;1.248;2023-04-02T17:07:26;1;1;
63305;PMS5003;50735;52.060;1.248;2023-04-02T17:10:16;8;4;
63305;PMS5003;50735;52.060;1.248;2023-04-02T17:12:58;4;3;
63305;PMS5003;50735;52.060;1.248;2023-04-02T17:15:35;6;3;
63305;PMS5003;50735;52.060;1.248;2023-04-02T17:18:09;7;1;
63305;PMS5003;50735;52.060;1.248;2023-04-02T17:20:46;3;3;
63305;PMS5003;50735;52.060;1.248;2023-04-02T17:23:19;9;2;
63305;PMS5003;50735;52.060;1.248;2023-04-02T17:25:52;3;2;
63305;PMS5003;50735;52.060;1.248;2023-04-02T17:28:29;4;3;
63305;PMS5003;50735;52.060;1.248;2023-04-02T17:31:04;2;2;
63305;PMS5003;50735;52.060;1.248;2023-04-02T17:33:43;7;3;
63305;PMS5003;50735;52.060;1.248;2023-04-02T17:36:24;7;2;
63305;PMS5003;50735;52.060;1.248;2023-04-02T17:39:08;3;3;
63305;PMS5003;50735;52.060;1.248;2023-04-02T17:41:48;2;2;
63305;PMS5003;50735;52.060;1.248;2023-04-02T17:44:28;2;2;
63305;PMS5003;50735;52.060;1.248;2023-04-02T17:47:13;6;2;
63305;PMS5003;50735;52.060;1.248;2023-04-02T17:49:55;5;3;
63305;PMS5003;50735;52.060;1.248;2023-04-02T17:52:47;1;1;
63305;PMS5003;50735;52.060;1.248;2023-04-02T17:55:27;1;1;
63305;PMS5003;50735;52.060;1.248;2023-04-02T17:58:07;3;3;
63305;PMS5003;50735;52.060;1.248;2023-04-02T18:00:55;5;2;